sensor_id;sensor_type;location;lat;lon;timestamp;P1;durP1;ratioP1;P2;durP2;ratioP2
72427;SDS011;60419;48.880;18.036;2024-02-26T00:02:28;13.30;;;8.20;;
72427;SDS011;60419;48.880;18.036;2024-02-26T00:05:14;14.05;;;8.73;;
72427;SDS011;60419;48.880;18.036;2024-02-26T00:07:59;12.32;;;7.80;;
72427;SDS011;60419;48.880;18.036;2024-02-26T00:10:44;13.77;;;7.68;;
72427;SDS011;60419;48.880;18.036;2024-02-26T00:13:30;11.85;;;7.25;;
72427;SDS011;60419;48.880;18.036;2024-02-26T00:16:15;12.25;;;8.13;;
72427;SDS011;60419;48.880;18.036;2024-02-26T00:19:01;12.00;;;7.72;;
72427;SDS011;60419;48.880;18.036;2024-02-26T00:21:46;12.68;;;7.85;;
72427;SDS011;60419;48.880;18.036;2024-02-26T00:24:32;15.65;;;9.23;;
72427;SDS011;60419;48.880;18.036;2024-02-26T00:27:17;12.43;;;7.65;;
72427;SDS011;60419;48.880;18.036;2024-02-26T00:30:03;11.32;;;7.28;;
72427;SDS011;60419;48.880;18.036;2024-02-26T00:32:48;12.82;;;7.50;;
72427;SDS011;60419;48.880;18.036;2024-02-26T00:35:34;13.77;;;7.65;;
72427;SDS011;60419;48.880;18.036;2024-02-26T00:38:19;15.05;;;8.20;;
72427;SDS011;60419;48.880;18.036;2024-02-26T00:41:05;10.90;;;6.68;;
72427;SDS011;60419;48.880;18.036;2024-02-26T00:43:50;12.07;;;7.03;;
72427;SDS011;60419;48.880;18.036;2024-02-26T00:46:36;14.40;;;8.32;;
72427;SDS011;60419;48.880;18.036;2024-02-26T00:49:21;11.55;;;7.00;;
72427;SDS011;60419;48.880;18.036;2024-02-26T00:52:07;11.98;;;7.03;;
72427;SDS011;60419;48.880;18.036;2024-02-26T00:54:52;11.57;;;7.10;;
72427;SDS011;60419;48.880;18.036;2024-02-26T00:57:37;11.52;;;6.72;;
72427;SDS011;60419;48.880;18.036;2024-02-26T01:00:23;11.73;;;6.95;;
72427;SDS011;60419;48.880;18.036;2024-02-26T01:03:08;10.13;;;6.85;;
72427;SDS011;60419;48.880;18.036;2024-02-26T01:05:55;18.42;;;7.70;;
72427;SDS011;60419;48.880;18.036;2024-02-26T01:08:40;12.90;;;7.55;;
72427;SDS011;60419;48.880;18.036;2024-02-26T01:11:26;9.63;;;6.68;;
72427;SDS011;60419;48.880;18.036;2024-02-26T01:14:11;11.88;;;7.10;;
72427;SDS011;60419;48.880;18.036;2024-02-26T01:16:57;11.25;;;7.18;;
72427;SDS011;60419;48.880;18.036;2024-02-26T01:19:42;11.57;;;7.40;;
72427;SDS011;60419;48.880;18.036;2024-02-26T01:22:27;13.98;;;7.80;;
72427;SDS011;60419;48.880;18.036;2024-02-26T01:25:13;11.45;;;7.68;;
72427;SDS011;60419;48.880;18.036;2024-02-26T01:28:00;12.50;;;8.27;;
72427;SDS011;60419;48.880;18.036;2024-02-26T01:30:46;16.45;;;8.68;;
72427;SDS011;60419;48.880;18.036;2024-02-26T01:33:31;11.88;;;8.02;;
72427;SDS011;60419;48.880;18.036;2024-02-26T01:36:16;10.80;;;7.45;;
72427;SDS011;60419;48.880;18.036;2024-02-26T01:39:02;11.75;;;7.13;;
72427;SDS011;60419;48.880;18.036;2024-02-26T01:41:48;11.90;;;7.32;;
72427;SDS011;60419;48.880;18.036;2024-02-26T01:44:34;12.23;;;7.82;;
72427;SDS011;60419;48.880;18.036;2024-02-26T01:47:19;14.77;;;7.75;;
72427;SDS011;60419;48.880;18.036;2024-02-26T01:50:05;16.25;;;8.43;;
72427;SDS011;60419;48.880;18.036;2024-02-26T01:52:51;15.65;;;9.10;;
72427;SDS011;60419;48.880;18.036;2024-02-26T01:55:39;13.68;;;8.88;;
72427;SDS011;60419;48.880;18.036;2024-02-26T01:58:25;13.57;;;8.88;;
72427;SDS011;60419;48.880;18.036;2024-02-26T02:01:11;11.75;;;8.15;;
72427;SDS011;60419;48.880;18.036;2024-02-26T02:03:58;13.25;;;8.32;;
72427;SDS011;60419;48.880;18.036;2024-02-26T02:06:45;13.00;;;8.00;;
72427;SDS011;60419;48.880;18.036;2024-02-26T02:09:30;13.48;;;8.30;;
72427;SDS011;60419;48.880;18.036;2024-02-26T02:12:16;12.05;;;8.30;;
72427;SDS011;60419;48.880;18.036;2024-02-26T02:15:02;13.52;;;8.15;;
72427;SDS011;60419;48.880;18.036;2024-02-26T02:17:49;14.57;;;8.50;;
72427;SDS011;60419;48.880;18.036;2024-02-26T02:20:34;12.43;;;7.55;;
72427;SDS011;60419;48.880;18.036;2024-02-26T02:23:20;12.48;;;8.15;;
72427;SDS011;60419;48.880;18.036;2024-02-26T02:26:06;15.38;;;8.27;;
72427;SDS011;60419;48.880;18.036;2024-02-26T02:28:51;14.52;;;8.60;;
72427;SDS011;60419;48.880;18.036;2024-02-26T02:31:38;14.02;;;9.30;;
72427;SDS011;60419;48.880;18.036;2024-02-26T02:34:23;16.42;;;8.45;;
72427;SDS011;60419;48.880;18.036;2024-02-26T02:37:09;15.70;;;8.70;;
72427;SDS011;60419;48.880;18.036;2024-02-26T02:39:54;15.15;;;9.10;;
72427;SDS011;60419;48.880;18.036;2024-02-26T02:42:40;12.40;;;7.65;;
72427;SDS011;60419;48.880;18.036;2024-02-26T02:45:25;13.20;;;9.18;;
72427;SDS011;60419;48.880;18.036;2024-02-26T02:48:11;14.30;;;8.55;;
72427;SDS011;60419;48.880;18.036;2024-02-26T02:50:56;14.63;;;8.55;;
72427;SDS011;60419;48.880;18.036;2024-02-26T02:53:42;14.10;;;9.70;;
72427;SDS011;60419;48.880;18.036;2024-02-26T02:56:27;11.38;;;7.90;;
72427;SDS011;60419;48.880;18.036;2024-02-26T02:59:12;13.57;;;8.65;;
72427;SDS011;60419;48.880;18.036;2024-02-26T03:01:58;14.30;;;9.38;;
72427;SDS011;60419;48.880;18.036;2024-02-26T03:04:43;13.13;;;8.65;;
72427;SDS011;60419;48.880;18.036;2024-02-26T03:07:29;12.93;;;8.40;;
72427;SDS011;60419;48.880;18.036;2024-02-26T03:10:14;13.65;;;8.13;;
72427;SDS011;60419;48.880;18.036;2024-02-26T03:12:59;13.10;;;8.05;;
72427;SDS011;60419;48.880;18.036;2024-02-26T03:15:45;12.13;;;8.45;;
72427;SDS011;60419;48.880;18.036;2024-02-26T03:18:30;11.45;;;7.57;;
72427;SDS011;60419;48.880;18.036;2024-02-26T03:21:16;12.60;;;8.20;;
72427;SDS011;60419;48.880;18.036;2024-02-26T03:24:01;12.68;;;8.20;;
72427;SDS011;60419;48.880;18.036;2024-02-26T03:26:46;12.32;;;7.95;;
72427;SDS011;60419;48.880;18.036;2024-02-26T03:29:32;12.88;;;7.85;;
72427;SDS011;60419;48.880;18.036;2024-02-26T03:32:17;11.38;;;7.25;;
72427;SDS011;60419;48.880;18.036;2024-02-26T03:35:03;13.98;;;8.55;;
72427;SDS011;60419;48.880;18.036;2024-02-26T03:37:48;12.63;;;8.57;;
72427;SDS011;60419;48.880;18.036;2024-02-26T03:40:35;12.73;;;8.32;;
72427;SDS011;60419;48.880;18.036;2024-02-26T03:43:21;11.63;;;7.72;;
72427;SDS011;60419;48.880;18.036;2024-02-26T03:46:09;14.63;;;8.82;;
72427;SDS011;60419;48.880;18.036;2024-02-26T03:48:58;12.52;;;7.95;;
72427;SDS011;60419;48.880;18.036;2024-02-26T03:51:44;11.80;;;7.25;;
72427;SDS011;60419;48.880;18.036;2024-02-26T03:54:29;12.48;;;7.65;;
72427;SDS011;60419;48.880;18.036;2024-02-26T03:57:14;11.32;;;7.75;;
72427;SDS011;60419;48.880;18.036;2024-02-26T04:00:00;12.45;;;8.20;;
72427;SDS011;60419;48.880;18.036;2024-02-26T04:02:48;15.18;;;8.02;;
72427;SDS011;60419;48.880;18.036;2024-02-26T04:05:34;13.38;;;7.40;;
72427;SDS011;60419;48.880;18.036;2024-02-26T04:08:19;12.60;;;7.32;;
72427;SDS011;60419;48.880;18.036;2024-02-26T04:11:05;11.38;;;7.43;;
72427;SDS011;60419;48.880;18.036;2024-02-26T04:13:52;11.23;;;8.05;;
72427;SDS011;60419;48.880;18.036;2024-02-26T04:16:37;14.18;;;7.93;;
72427;SDS011;60419;48.880;18.036;2024-02-26T04:19:23;12.07;;;7.55;;
72427;SDS011;60419;48.880;18.036;2024-02-26T04:22:09;13.57;;;7.88;;
72427;SDS011;60419;48.880;18.036;2024-02-26T04:24:56;14.48;;;7.68;;
72427;SDS011;60419;48.880;18.036;2024-02-26T04:27:41;13.75;;;8.18;;
72427;SDS011;60419;48.880;18.036;2024-02-26T04:30:26;13.55;;;8.45;;
72427;SDS011;60419;48.880;18.036;2024-02-26T04:33:12;14.15;;;8.05;;
72427;SDS011;60419;48.880;18.036;2024-02-26T04:35:57;13.00;;;7.95;;
72427;SDS011;60419;48.880;18.036;2024-02-26T04:38:43;12.35;;;7.70;;
72427;SDS011;60419;48.880;18.036;2024-02-26T04:41:28;12.82;;;7.63;;
72427;SDS011;60419;48.880;18.036;2024-02-26T04:44:14;12.13;;;6.80;;
72427;SDS011;60419;48.880;18.036;2024-02-26T04:46:59;13.73;;;7.32;;
72427;SDS011;60419;48.880;18.036;2024-02-26T04:49:46;14.07;;;7.40;;
72427;SDS011;60419;48.880;18.036;2024-02-26T04:52:32;11.90;;;6.80;;
72427;SDS011;60419;48.880;18.036;2024-02-26T04:55:17;12.30;;;7.22;;
72427;SDS011;60419;48.880;18.036;2024-02-26T04:58:03;11.45;;;7.10;;
72427;SDS011;60419;48.880;18.036;2024-02-26T05:00:48;14.20;;;7.28;;
72427;SDS011;60419;48.880;18.036;2024-02-26T05:03:34;11.45;;;6.68;;
72427;SDS011;60419;48.880;18.036;2024-02-26T05:06:19;13.55;;;7.18;;
72427;SDS011;60419;48.880;18.036;2024-02-26T05:09:04;11.35;;;6.15;;
72427;SDS011;60419;48.880;18.036;2024-02-26T05:11:50;12.23;;;6.75;;
72427;SDS011;60419;48.880;18.036;2024-02-26T05:14:35;13.00;;;7.45;;
72427;SDS011;60419;48.880;18.036;2024-02-26T05:17:21;10.40;;;6.80;;
72427;SDS011;60419;48.880;18.036;2024-02-26T05:20:06;11.00;;;6.60;;
72427;SDS011;60419;48.880;18.036;2024-02-26T05:22:53;14.48;;;7.05;;
72427;SDS011;60419;48.880;18.036;2024-02-26T05:25:39;11.65;;;6.97;;
72427;SDS011;60419;48.880;18.036;2024-02-26T05:28:26;11.18;;;7.32;;
72427;SDS011;60419;48.880;18.036;2024-02-26T05:31:14;11.70;;;6.60;;
72427;SDS011;60419;48.880;18.036;2024-02-26T05:34:00;12.25;;;7.40;;
72427;SDS011;60419;48.880;18.036;2024-02-26T05:36:46;12.95;;;7.00;;
72427;SDS011;60419;48.880;18.036;2024-02-26T05:39:31;13.95;;;7.55;;
72427;SDS011;60419;48.880;18.036;2024-02-26T05:42:17;14.77;;;7.05;;
72427;SDS011;60419;48.880;18.036;2024-02-26T05:45:02;11.50;;;7.35;;
72427;SDS011;60419;48.880;18.036;2024-02-26T05:47:51;12.52;;;7.05;;
72427;SDS011;60419;48.880;18.036;2024-02-26T05:50:36;10.63;;;6.70;;
72427;SDS011;60419;48.880;18.036;2024-02-26T05:53:21;11.43;;;7.22;;
72427;SDS011;60419;48.880;18.036;2024-02-26T05:56:07;11.23;;;6.65;;
72427;SDS011;60419;48.880;18.036;2024-02-26T05:58:52;10.82;;;6.85;;
72427;SDS011;60419;48.880;18.036;2024-02-26T06:01:39;14.25;;;7.57;;
72427;SDS011;60419;48.880;18.036;2024-02-26T06:04:24;13.05;;;7.47;;
72427;SDS011;60419;48.880;18.036;2024-02-26T06:07:10;11.90;;;6.53;;
72427;SDS011;60419;48.880;18.036;2024-02-26T06:09:55;12.52;;;6.57;;
72427;SDS011;60419;48.880;18.036;2024-02-26T06:12:40;11.05;;;6.70;;
72427;SDS011;60419;48.880;18.036;2024-02-26T06:15:26;10.25;;;5.85;;
72427;SDS011;60419;48.880;18.036;2024-02-26T06:18:11;13.52;;;7.25;;
72427;SDS011;60419;48.880;18.036;2024-02-26T06:20:57;10.85;;;6.80;;
72427;SDS011;60419;48.880;18.036;2024-02-26T06:23:42;10.60;;;6.47;;
72427;SDS011;60419;48.880;18.036;2024-02-26T06:26:28;10.75;;;6.47;;
72427;SDS011;60419;48.880;18.036;2024-02-26T06:29:14;12.15;;;6.32;;
72427;SDS011;60419;48.880;18.036;2024-02-26T06:32:00;13.13;;;6.75;;
72427;SDS011;60419;48.880;18.036;2024-02-26T06:34:45;13.77;;;6.80;;
72427;SDS011;60419;48.880;18.036;2024-02-26T06:37:30;11.48;;;6.40;;
72427;SDS011;60419;48.880;18.036;2024-02-26T06:40:16;10.73;;;6.13;;
72427;SDS011;60419;48.880;18.036;2024-02-26T06:43:01;8.45;;;5.97;;
72427;SDS011;60419;48.880;18.036;2024-02-26T06:45:47;11.65;;;6.20;;
72427;SDS011;60419;48.880;18.036;2024-02-26T06:48:32;13.20;;;6.53;;
72427;SDS011;60419;48.880;18.036;2024-02-26T06:51:18;11.50;;;6.53;;
72427;SDS011;60419;48.880;18.036;2024-02-26T06:54:03;11.93;;;6.05;;
72427;SDS011;60419;48.880;18.036;2024-02-26T06:56:48;11.32;;;6.47;;
72427;SDS011;60419;48.880;18.036;2024-02-26T06:59:34;10.75;;;7.07;;
72427;SDS011;60419;48.880;18.036;2024-02-26T07:02:19;9.93;;;6.10;;
72427;SDS011;60419;48.880;18.036;2024-02-26T07:05:05;9.82;;;6.05;;
72427;SDS011;60419;48.880;18.036;2024-02-26T07:07:50;9.68;;;6.38;;
72427;SDS011;60419;48.880;18.036;2024-02-26T07:10:36;9.75;;;5.93;;
72427;SDS011;60419;48.880;18.036;2024-02-26T07:13:21;11.68;;;6.28;;
72427;SDS011;60419;48.880;18.036;2024-02-26T07:16:08;11.07;;;6.45;;
72427;SDS011;60419;48.880;18.036;2024-02-26T07:18:54;8.98;;;5.82;;
72427;SDS011;60419;48.880;18.036;2024-02-26T07:21:39;9.20;;;5.72;;
72427;SDS011;60419;48.880;18.036;2024-02-26T07:24:25;10.18;;;6.43;;
72427;SDS011;60419;48.880;18.036;2024-02-26T07:27:11;10.15;;;6.28;;
72427;SDS011;60419;48.880;18.036;2024-02-26T07:29:56;11.80;;;6.32;;
72427;SDS011;60419;48.880;18.036;2024-02-26T07:32:45;10.65;;;6.07;;
72427;SDS011;60419;48.880;18.036;2024-02-26T07:35:30;10.98;;;6.30;;
72427;SDS011;60419;48.880;18.036;2024-02-26T07:38:17;9.23;;;5.80;;
72427;SDS011;60419;48.880;18.036;2024-02-26T07:41:03;10.23;;;5.95;;
72427;SDS011;60419;48.880;18.036;2024-02-26T07:43:48;12.25;;;5.97;;
72427;SDS011;60419;48.880;18.036;2024-02-26T07:46:34;11.75;;;6.57;;
72427;SDS011;60419;48.880;18.036;2024-02-26T07:49:19;9.48;;;5.78;;
72427;SDS011;60419;48.880;18.036;2024-02-26T07:52:05;12.18;;;6.03;;
72427;SDS011;60419;48.880;18.036;2024-02-26T07:54:50;10.45;;;6.30;;
72427;SDS011;60419;48.880;18.036;2024-02-26T07:57:36;9.80;;;6.28;;
72427;SDS011;60419;48.880;18.036;2024-02-26T08:00:21;9.55;;;5.47;;
72427;SDS011;60419;48.880;18.036;2024-02-26T08:03:07;9.57;;;5.50;;
72427;SDS011;60419;48.880;18.036;2024-02-26T08:05:52;9.80;;;5.65;;
72427;SDS011;60419;48.880;18.036;2024-02-26T08:08:38;8.65;;;5.00;;
72427;SDS011;60419;48.880;18.036;2024-02-26T08:11:23;11.60;;;5.65;;
72427;SDS011;60419;48.880;18.036;2024-02-26T08:14:09;11.05;;;5.72;;
72427;SDS011;60419;48.880;18.036;2024-02-26T08:16:54;8.13;;;5.43;;
72427;SDS011;60419;48.880;18.036;2024-02-26T08:19:39;9.52;;;4.93;;
72427;SDS011;60419;48.880;18.036;2024-02-26T08:22:25;8.55;;;5.25;;
72427;SDS011;60419;48.880;18.036;2024-02-26T08:25:10;7.70;;;5.00;;
72427;SDS011;60419;48.880;18.036;2024-02-26T08:27:56;8.02;;;4.85;;
72427;SDS011;60419;48.880;18.036;2024-02-26T08:30:42;7.93;;;4.68;;
72427;SDS011;60419;48.880;18.036;2024-02-26T08:33:27;8.40;;;4.60;;
72427;SDS011;60419;48.880;18.036;2024-02-26T08:36:13;7.45;;;4.28;;
72427;SDS011;60419;48.880;18.036;2024-02-26T08:38:58;7.80;;;4.63;;
72427;SDS011;60419;48.880;18.036;2024-02-26T08:41:44;7.60;;;4.50;;
72427;SDS011;60419;48.880;18.036;2024-02-26T08:44:30;6.63;;;4.07;;
72427;SDS011;60419;48.880;18.036;2024-02-26T08:47:15;8.65;;;3.88;;
72427;SDS011;60419;48.880;18.036;2024-02-26T08:50:01;6.00;;;3.10;;
72427;SDS011;60419;48.880;18.036;2024-02-26T08:52:47;7.47;;;3.83;;
72427;SDS011;60419;48.880;18.036;2024-02-26T08:55:35;7.88;;;3.40;;
72427;SDS011;60419;48.880;18.036;2024-02-26T08:58:21;6.72;;;3.63;;
72427;SDS011;60419;48.880;18.036;2024-02-26T09:01:06;6.38;;;3.88;;
72427;SDS011;60419;48.880;18.036;2024-02-26T09:03:51;5.95;;;3.83;;
72427;SDS011;60419;48.880;18.036;2024-02-26T09:06:37;5.07;;;3.17;;
72427;SDS011;60419;48.880;18.036;2024-02-26T09:09:22;6.03;;;3.22;;
72427;SDS011;60419;48.880;18.036;2024-02-26T09:12:10;5.30;;;2.90;;
72427;SDS011;60419;48.880;18.036;2024-02-26T09:14:55;9.43;;;3.17;;
72427;SDS011;60419;48.880;18.036;2024-02-26T09:17:42;7.88;;;2.90;;
72427;SDS011;60419;48.880;18.036;2024-02-26T09:20:28;5.22;;;2.65;;
72427;SDS011;60419;48.880;18.036;2024-02-26T09:23:13;4.53;;;2.50;;
72427;SDS011;60419;48.880;18.036;2024-02-26T09:25:59;4.97;;;2.40;;
72427;SDS011;60419;48.880;18.036;2024-02-26T09:28:44;3.88;;;2.47;;
72427;SDS011;60419;48.880;18.036;2024-02-26T09:31:30;4.13;;;2.40;;
72427;SDS011;60419;48.880;18.036;2024-02-26T09:34:15;4.75;;;2.47;;
72427;SDS011;60419;48.880;18.036;2024-02-26T09:37:01;4.05;;;2.40;;
72427;SDS011;60419;48.880;18.036;2024-02-26T09:39:46;4.82;;;2.40;;
72427;SDS011;60419;48.880;18.036;2024-02-26T09:42:32;3.88;;;2.00;;
72427;SDS011;60419;48.880;18.036;2024-02-26T09:45:19;4.07;;;2.40;;
72427;SDS011;60419;48.880;18.036;2024-02-26T09:48:08;4.75;;;2.30;;
72427;SDS011;60419;48.880;18.036;2024-02-26T09:50:54;3.53;;;2.03;;
72427;SDS011;60419;48.880;18.036;2024-02-26T09:53:40;5.32;;;2.70;;
72427;SDS011;60419;48.880;18.036;2024-02-26T09:56:30;3.92;;;2.35;;
72427;SDS011;60419;48.880;18.036;2024-02-26T09:59:17;4.75;;;2.30;;
72427;SDS011;60419;48.880;18.036;2024-02-26T10:02:03;6.18;;;2.90;;
72427;SDS011;60419;48.880;18.036;2024-02-26T10:04:49;3.90;;;2.30;;
72427;SDS011;60419;48.880;18.036;2024-02-26T10:07:37;4.55;;;2.63;;
72427;SDS011;60419;48.880;18.036;2024-02-26T10:10:23;4.88;;;2.83;;
72427;SDS011;60419;48.880;18.036;2024-02-26T10:13:08;4.85;;;2.78;;
72427;SDS011;60419;48.880;18.036;2024-02-26T10:15:56;6.07;;;3.28;;
72427;SDS011;60419;48.880;18.036;2024-02-26T10:18:51;8.02;;;3.25;;
72427;SDS011;60419;48.880;18.036;2024-02-26T10:21:38;4.80;;;2.90;;
72427;SDS011;60419;48.880;18.036;2024-02-26T10:24:24;8.15;;;4.10;;
72427;SDS011;60419;48.880;18.036;2024-02-26T10:27:11;5.57;;;3.28;;
72427;SDS011;60419;48.880;18.036;2024-02-26T10:29:57;6.35;;;3.05;;
72427;SDS011;60419;48.880;18.036;2024-02-26T10:32:42;6.47;;;2.88;;
72427;SDS011;60419;48.880;18.036;2024-02-26T10:35:29;7.55;;;4.05;;
72427;SDS011;60419;48.880;18.036;2024-02-26T10:38:16;5.75;;;3.78;;
72427;SDS011;60419;48.880;18.036;2024-02-26T10:41:12;7.85;;;4.05;;
72427;SDS011;60419;48.880;18.036;2024-02-26T10:44:00;7.75;;;4.30;;
72427;SDS011;60419;48.880;18.036;2024-02-26T10:46:49;7.22;;;4.47;;
72427;SDS011;60419;48.880;18.036;2024-02-26T10:49:35;7.53;;;4.50;;
72427;SDS011;60419;48.880;18.036;2024-02-26T10:52:20;7.05;;;4.43;;
72427;SDS011;60419;48.880;18.036;2024-02-26T10:55:08;6.70;;;4.00;;
72427;SDS011;60419;48.880;18.036;2024-02-26T10:58:00;7.65;;;5.10;;
72427;SDS011;60419;48.880;18.036;2024-02-26T11:00:48;8.68;;;4.55;;
72427;SDS011;60419;48.880;18.036;2024-02-26T11:03:35;6.35;;;3.97;;
72427;SDS011;60419;48.880;18.036;2024-02-26T11:06:22;6.90;;;3.58;;
72427;SDS011;60419;48.880;18.036;2024-02-26T11:09:08;6.50;;;3.67;;
72427;SDS011;60419;48.880;18.036;2024-02-26T11:11:58;7.43;;;3.55;;
72427;SDS011;60419;48.880;18.036;2024-02-26T11:14:45;7.50;;;4.07;;
72427;SDS011;60419;48.880;18.036;2024-02-26T11:17:31;5.85;;;3.55;;
72427;SDS011;60419;48.880;18.036;2024-02-26T11:20:19;6.30;;;4.07;;
72427;SDS011;60419;48.880;18.036;2024-02-26T11:23:04;8.45;;;4.25;;
72427;SDS011;60419;48.880;18.036;2024-02-26T11:25:52;6.65;;;3.72;;
72427;SDS011;60419;48.880;18.036;2024-02-26T11:28:40;6.70;;;4.00;;
72427;SDS011;60419;48.880;18.036;2024-02-26T11:31:26;7.45;;;4.45;;
72427;SDS011;60419;48.880;18.036;2024-02-26T11:34:12;6.63;;;4.20;;
72427;SDS011;60419;48.880;18.036;2024-02-26T11:36:58;7.65;;;4.22;;
72427;SDS011;60419;48.880;18.036;2024-02-26T11:39:54;9.38;;;4.55;;
72427;SDS011;60419;48.880;18.036;2024-02-26T11:42:49;7.07;;;4.30;;
72427;SDS011;60419;48.880;18.036;2024-02-26T11:48:24;5.72;;;4.07;;
72427;SDS011;60419;48.880;18.036;2024-02-26T11:51:10;6.43;;;3.67;;
72427;SDS011;60419;48.880;18.036;2024-02-26T11:53:55;5.88;;;3.75;;
72427;SDS011;60419;48.880;18.036;2024-02-26T11:56:42;6.95;;;3.15;;
72427;SDS011;60419;48.880;18.036;2024-02-26T11:59:37;4.47;;;3.03;;
72427;SDS011;60419;48.880;18.036;2024-02-26T12:03:08;5.82;;;3.58;;
72427;SDS011;60419;48.880;18.036;2024-02-26T12:05:32;7.35;;;3.97;;
72427;SDS011;60419;48.880;18.036;2024-02-26T12:08:20;4.60;;;2.45;;
72427;SDS011;60419;48.880;18.036;2024-02-26T12:11:14;4.90;;;2.70;;
72427;SDS011;60419;48.880;18.036;2024-02-26T12:14:00;6.43;;;3.28;;
72427;SDS011;60419;48.880;18.036;2024-02-26T12:16:46;4.20;;;2.35;;
72427;SDS011;60419;48.880;18.036;2024-02-26T12:19:35;6.18;;;2.60;;
72427;SDS011;60419;48.880;18.036;2024-02-26T12:22:21;7.90;;;3.45;;
72427;SDS011;60419;48.880;18.036;2024-02-26T12:25:09;5.95;;;3.08;;
72427;SDS011;60419;48.880;18.036;2024-02-26T12:27:54;6.43;;;2.92;;
72427;SDS011;60419;48.880;18.036;2024-02-26T12:30:40;4.32;;;2.47;;
72427;SDS011;60419;48.880;18.036;2024-02-26T12:33:26;5.22;;;3.20;;
72427;SDS011;60419;48.880;18.036;2024-02-26T12:36:12;5.68;;;3.35;;
72427;SDS011;60419;48.880;18.036;2024-02-26T12:38:58;8.43;;;3.60;;
72427;SDS011;60419;48.880;18.036;2024-02-26T12:41:45;7.30;;;3.90;;
72427;SDS011;60419;48.880;18.036;2024-02-26T12:44:34;8.05;;;4.03;;
72427;SDS011;60419;48.880;18.036;2024-02-26T12:47:19;5.65;;;3.60;;
72427;SDS011;60419;48.880;18.036;2024-02-26T12:50:05;7.18;;;3.58;;
72427;SDS011;60419;48.880;18.036;2024-02-26T12:52:51;9.98;;;3.80;;
72427;SDS011;60419;48.880;18.036;2024-02-26T12:55:38;6.72;;;4.00;;
72427;SDS011;60419;48.880;18.036;2024-02-26T12:58:25;8.63;;;3.50;;
72427;SDS011;60419;48.880;18.036;2024-02-26T13:01:14;6.53;;;3.70;;
72427;SDS011;60419;48.880;18.036;2024-02-26T13:04:01;5.28;;;3.03;;
72427;SDS011;60419;48.880;18.036;2024-02-26T13:06:51;5.05;;;2.85;;
72427;SDS011;60419;48.880;18.036;2024-02-26T13:09:36;6.35;;;3.50;;
72427;SDS011;60419;48.880;18.036;2024-02-26T13:12:23;7.43;;;3.47;;
72427;SDS011;60419;48.880;18.036;2024-02-26T13:15:08;6.22;;;3.08;;
72427;SDS011;60419;48.880;18.036;2024-02-26T13:20:53;5.75;;;3.53;;
72427;SDS011;60419;48.880;18.036;2024-02-26T13:23:39;6.30;;;3.85;;
72427;SDS011;60419;48.880;18.036;2024-02-26T13:26:25;6.68;;;3.67;;
72427;SDS011;60419;48.880;18.036;2024-02-26T13:29:17;6.78;;;3.80;;
72427;SDS011;60419;48.880;18.036;2024-02-26T13:32:03;6.53;;;4.28;;
72427;SDS011;60419;48.880;18.036;2024-02-26T13:34:49;7.45;;;4.55;;
72427;SDS011;60419;48.880;18.036;2024-02-26T13:37:35;7.25;;;4.30;;
72427;SDS011;60419;48.880;18.036;2024-02-26T13:40:20;6.22;;;3.80;;
72427;SDS011;60419;48.880;18.036;2024-02-26T13:43:06;5.93;;;3.67;;
72427;SDS011;60419;48.880;18.036;2024-02-26T13:45:51;8.43;;;5.57;;
72427;SDS011;60419;48.880;18.036;2024-02-26T13:48:37;8.70;;;5.85;;
72427;SDS011;60419;48.880;18.036;2024-02-26T13:51:22;9.23;;;6.40;;
72427;SDS011;60419;48.880;18.036;2024-02-26T13:54:08;8.75;;;6.20;;
72427;SDS011;60419;48.880;18.036;2024-02-26T13:56:55;9.63;;;6.03;;
72427;SDS011;60419;48.880;18.036;2024-02-26T13:59:40;10.88;;;6.10;;
72427;SDS011;60419;48.880;18.036;2024-02-26T14:02:27;12.35;;;7.35;;
72427;SDS011;60419;48.880;18.036;2024-02-26T14:05:12;10.43;;;6.38;;
72427;SDS011;60419;48.880;18.036;2024-02-26T14:07:58;12.02;;;6.80;;
72427;SDS011;60419;48.880;18.036;2024-02-26T14:10:43;10.15;;;7.07;;
72427;SDS011;60419;48.880;18.036;2024-02-26T14:13:29;13.35;;;7.95;;
72427;SDS011;60419;48.880;18.036;2024-02-26T14:16:14;13.73;;;7.22;;
72427;SDS011;60419;48.880;18.036;2024-02-26T14:19:00;13.88;;;8.45;;
72427;SDS011;60419;48.880;18.036;2024-02-26T14:21:45;11.85;;;7.38;;
72427;SDS011;60419;48.880;18.036;2024-02-26T14:24:30;12.40;;;8.05;;
72427;SDS011;60419;48.880;18.036;2024-02-26T14:27:16;12.30;;;8.00;;
72427;SDS011;60419;48.880;18.036;2024-02-26T14:30:02;12.40;;;8.20;;
72427;SDS011;60419;48.880;18.036;2024-02-26T14:32:48;13.98;;;8.10;;
72427;SDS011;60419;48.880;18.036;2024-02-26T14:35:33;13.80;;;8.20;;
72427;SDS011;60419;48.880;18.036;2024-02-26T14:38:18;12.32;;;8.43;;
72427;SDS011;60419;48.880;18.036;2024-02-26T14:41:04;13.65;;;8.30;;
72427;SDS011;60419;48.880;18.036;2024-02-26T14:43:49;14.95;;;8.57;;
72427;SDS011;60419;48.880;18.036;2024-02-26T14:46:35;12.32;;;8.25;;
72427;SDS011;60419;48.880;18.036;2024-02-26T14:49:21;15.45;;;8.55;;
72427;SDS011;60419;48.880;18.036;2024-02-26T14:52:07;14.57;;;7.63;;
72427;SDS011;60419;48.880;18.036;2024-02-26T14:54:52;13.50;;;7.88;;
72427;SDS011;60419;48.880;18.036;2024-02-26T14:57:37;13.60;;;8.32;;
72427;SDS011;60419;48.880;18.036;2024-02-26T15:00:23;12.25;;;8.10;;
72427;SDS011;60419;48.880;18.036;2024-02-26T15:03:08;12.75;;;8.02;;
72427;SDS011;60419;48.880;18.036;2024-02-26T15:05:54;14.10;;;8.82;;
72427;SDS011;60419;48.880;18.036;2024-02-26T15:08:39;12.57;;;8.48;;
72427;SDS011;60419;48.880;18.036;2024-02-26T15:11:24;14.40;;;9.13;;
72427;SDS011;60419;48.880;18.036;2024-02-26T15:14:10;14.80;;;9.23;;
72427;SDS011;60419;48.880;18.036;2024-02-26T15:16:55;14.93;;;9.45;;
72427;SDS011;60419;48.880;18.036;2024-02-26T15:19:41;16.77;;;9.93;;
72427;SDS011;60419;48.880;18.036;2024-02-26T15:22:26;13.20;;;9.32;;
72427;SDS011;60419;48.880;18.036;2024-02-26T15:25:12;14.65;;;9.70;;
72427;SDS011;60419;48.880;18.036;2024-02-26T15:27:58;15.45;;;10.15;;
72427;SDS011;60419;48.880;18.036;2024-02-26T15:30:44;14.55;;;8.07;;
72427;SDS011;60419;48.880;18.036;2024-02-26T15:33:30;17.33;;;9.98;;
72427;SDS011;60419;48.880;18.036;2024-02-26T15:36:16;15.82;;;9.27;;
72427;SDS011;60419;48.880;18.036;2024-02-26T15:39:01;13.80;;;9.70;;
72427;SDS011;60419;48.880;18.036;2024-02-26T15:41:48;14.52;;;9.77;;
72427;SDS011;60419;48.880;18.036;2024-02-26T15:44:34;17.90;;;10.63;;
72427;SDS011;60419;48.880;18.036;2024-02-26T15:47:22;13.30;;;9.68;;
72427;SDS011;60419;48.880;18.036;2024-02-26T15:50:08;14.02;;;10.30;;
72427;SDS011;60419;48.880;18.036;2024-02-26T15:52:55;13.98;;;10.27;;
72427;SDS011;60419;48.880;18.036;2024-02-26T15:55:41;15.40;;;10.65;;
72427;SDS011;60419;48.880;18.036;2024-02-26T15:58:27;14.48;;;10.23;;
72427;SDS011;60419;48.880;18.036;2024-02-26T16:01:13;20.58;;;11.13;;
72427;SDS011;60419;48.880;18.036;2024-02-26T16:03:58;13.10;;;7.93;;
72427;SDS011;60419;48.880;18.036;2024-02-26T16:06:44;14.40;;;10.30;;
72427;SDS011;60419;48.880;18.036;2024-02-26T16:09:33;14.02;;;10.00;;
72427;SDS011;60419;48.880;18.036;2024-02-26T16:12:21;14.93;;;10.65;;
72427;SDS011;60419;48.880;18.036;2024-02-26T16:15:12;15.48;;;10.68;;
72427;SDS011;60419;48.880;18.036;2024-02-26T16:17:57;16.52;;;11.15;;
72427;SDS011;60419;48.880;18.036;2024-02-26T16:20:43;16.13;;;10.88;;
72427;SDS011;60419;48.880;18.036;2024-02-26T16:23:28;16.20;;;10.82;;